Time;durP1;ratioP1;P1;durP2;ratioP2;P2;SDS_P1;SDS_P2;PMS_P1;PMS_P2;Temp;Humidity;BMP_temperature;BMP_pressure;BME280_temperature;BME280_humidity;BME280_pressure;Samples;Min_cycle;Max_cycle;Signal;HPM_P1;HPM_P2
2023/01/12 08:05:59;;;;;;;3.60;2.77;;;4.90;99.90;;;;;;5134976;27;20271;-78
2023/01/12 08:10:02;;;;;;;4.93;2.27;;;4.90;99.90;;;;;;5137169;27;20271;-79
2023/01/12 08:13:24;;;;;;;6.30;2.20;;;5.00;99.90;;;;;;5137462;27;20281;-79
2023/01/12 08:15:50;;;;;;;5.87;2.30;;;5.10;99.90;;;;;;5119528;28;20907;-79
2023/01/12 08:18:43;;;;;;;3.50;1.77;;;5.10;99.90;;;;;;5135395;28;20217;-78
2023/01/12 08:21:13;;;;;;;2.70;1.53;;;5.20;99.90;;;;;;5134997;27;20453;-79
2023/01/12 08:23:44;;;;;;;2.90;1.30;;;5.40;99.90;;;;;;5133030;28;20629;-79
2023/01/12 08:26:15;;;;;;;4.27;2.07;;;5.70;99.90;;;;;;5135485;28;20177;-78
2023/01/12 08:28:58;;;;;;;2.47;1.40;;;6.00;99.90;;;;;;5136485;27;20688;-78
2023/01/12 08:31:25;;;;;;;6.37;2.20;;;5.80;99.90;;;;;;5131329;28;20448;-79
2023/01/12 08:33:52;;;;;;;3.87;2.40;;;5.70;99.90;;;;;;5136230;27;20174;-78
2023/01/12 08:36:19;;;;;;;1.60;1.27;;;5.90;99.90;;;;;;5135865;27;20167;-79
2023/01/12 08:38:45;;;;;;;3.00;1.20;;;5.90;99.90;;;;;;5136098;28;20192;-78
2023/01/12 08:41:31;;;;;;;3.80;1.60;;;5.90;99.90;;;;;;5138231;27;20163;-79
2023/01/12 08:44:01;;;;;;;4.67;1.73;;;6.10;99.90;;;;;;5134050;28;20175;-79
2023/01/12 08:46:36;;;;;;;2.60;1.17;;;6.20;99.90;;;;;;5137175;27;20195;-79
2023/01/12 08:49:06;;;;;;;2.80;1.23;;;6.20;99.90;;;;;;5133910;28;20204;-78
2023/01/12 08:51:33;;;;;;;6.63;1.50;;;6.30;99.90;;;;;;5134544;28;20191;-78
2023/01/12 08:54:00;;;;;;;2.80;1.50;;;6.40;99.90;;;;;;5136067;27;20172;-80
2023/01/12 08:56:25;;;;;;;4.60;1.97;;;6.40;99.90;;;;;;5135398;27;20168;-78
2023/01/12 08:58:51;;;;;;;4.30;1.20;;;6.50;99.90;;;;;;5134019;28;20223;-79
2023/01/12 09:01:18;;;;;;;3.93;2.07;;;6.50;99.90;;;;;;5133154;27;20251;-77
2023/01/12 09:03:45;;;;;;;5.63;1.60;;;6.60;99.90;;;;;;5132516;27;20187;-78
2023/01/12 09:06:24;;;;;;;6.60;2.93;;;6.70;99.90;;;;;;5133417;28;20176;-79
2023/01/12 09:08:58;;;;;;;4.43;2.50;;;6.70;99.90;;;;;;5134817;27;20195;-78
2023/01/12 09:11:28;;;;;;;3.50;1.30;;;6.70;99.90;;;;;;5133015;28;20204;-79
2023/01/12 09:13:57;;;;;;;5.20;2.33;;;6.60;99.90;;;;;;5134414;27;20238;-80
2023/01/12 09:16:25;;;;;;;3.73;1.40;;;6.60;99.90;;;;;;5130692;28;20571;-78
2023/01/12 09:18:51;;;;;;;2.73;1.37;;;6.60;99.90;;;;;;5134599;28;20586;-78
2023/01/12 09:21:19;;;;;;;1.60;1.20;;;6.60;99.90;;;;;;5131215;27;20171;-78
2023/01/12 09:23:45;;;;;;;2.73;1.30;;;6.50;99.90;;;;;;5122053;28;20183;-79
2023/01/12 09:26:13;;;;;;;4.00;1.20;;;6.60;99.90;;;;;;5121765;28;20200;-80
2023/01/12 09:28:39;;;;;;;3.03;1.23;;;6.60;99.90;;;;;;5119867;28;20740;-79
2023/01/12 09:31:07;;;;;;;1.57;1.30;;;6.60;99.90;;;;;;5120788;28;20169;-78
2023/01/12 09:33:34;;;;;;;6.10;1.50;;;6.60;99.90;;;;;;5116990;28;20174;-78
2023/01/12 09:36:05;;;;;;;4.37;1.47;;;6.70;99.90;;;;;;5117857;28;20216;-79
2023/01/12 09:38:33;;;;;;;4.73;2.33;;;6.70;99.90;;;;;;5116655;28;20201;-78
2023/01/12 09:41:02;;;;;;;5.53;1.27;;;6.70;99.90;;;;;;5120187;28;20291;-79
2023/01/12 09:49:12;;;;;;;5.53;2.00;;;6.80;99.90;;;;;;5122200;28;20277;-79
2023/01/12 09:52:01;;;;;;;3.70;2.07;;;6.80;99.90;;;;;;5119846;28;20686;-78
2023/01/12 09:54:26;;;;;;;3.83;2.27;;;6.80;99.90;;;;;;5121849;28;20153;-78
2023/01/12 09:57:23;;;;;;;8.63;4.27;;;6.90;99.90;;;;;;5116702;28;20251;-77
2023/01/12 10:00:00;;;;;;;4.50;3.10;;;6.90;99.90;;;;;;5121369;28;20169;-78
2023/01/12 10:02:26;;;;;;;4.53;2.50;;;6.90;99.90;;;;;;5118974;28;20199;-79
2023/01/12 10:04:55;;;;;;;6.50;2.63;;;7.00;99.90;;;;;;5121705;28;20180;-79
2023/01/12 10:07:21;;;;;;;4.73;2.07;;;7.00;99.90;;;;;;5119044;28;20176;-78
2023/01/12 10:09:47;;;;;;;7.73;5.30;;;7.10;99.90;;;;;;5116277;28;20610;-79
2023/01/12 10:12:26;;;;;;;5.13;2.73;;;7.10;99.90;;;;;;5122122;28;20200;-80
2023/01/12 10:15:21;;;;;;;3.40;1.70;;;7.10;99.90;;;;;;5120666;28;20248;-80
2023/01/12 10:18:08;;;;;;;2.33;1.33;;;7.10;99.90;;;;;;5122293;28;20184;-78
2023/01/12 10:20:42;;;;;;;6.03;2.97;;;7.10;99.90;;;;;;5119993;28;20500;-80
2023/01/12 10:23:08;;;;;;;10.97;9.87;;;7.20;99.90;;;;;;5131103;28;20273;-79
2023/01/12 10:25:37;;;;;;;0.93;0.77;;;7.20;99.90;;;;;;5129298;28;20206;-78
2023/01/12 10:28:20;;;;;;;2.50;1.10;;;7.20;99.90;;;;;;5117098;28;20210;-78
2023/01/12 10:30:46;;;;;;;2.17;1.10;;;7.30;99.90;;;;;;5117766;28;20179;-78
2023/01/12 10:33:17;;;;;;;1.13;0.70;;;7.30;99.90;;;;;;5118243;28;20629;-77
2023/01/12 10:35:59;;;;;;;2.83;0.80;;;7.30;99.90;;;;;;5118418;28;20175;-79
2023/01/12 10:38:34;;;;;;;3.83;1.17;;;7.30;99.90;;;;;;5120831;28;20594;-79
2023/01/12 10:41:05;;;;;;;1.40;1.30;;;7.40;99.90;;;;;;5119379;28;20237;-79
2023/01/12 10:43:32;;;;;;;4.63;1.30;;;7.40;99.90;;;;;;5117832;28;20173;-78
2023/01/12 10:46:10;;;;;;;2.20;1.00;;;7.40;99.90;;;;;;5117618;28;20247;-79
2023/01/12 10:48:38;;;;;;;2.27;1.20;;;7.50;99.90;;;;;;5115526;28;20194;-78
2023/01/12 10:51:20;;;;;;;0.87;0.70;;;7.50;99.90;;;;;;5115349;28;20185;-78
2023/01/12 10:53:51;;;;;;;4.63;1.60;;;7.60;99.90;;;;;;5114087;28;20526;-78
2023/01/12 10:56:32;;;;;;;2.73;1.00;;;7.80;99.90;;;;;;5118751;28;20520;-79
2023/01/12 10:59:00;;;;;;;5.60;1.53;;;7.90;99.90;;;;;;5119551;28;20207;-80
2023/01/12 11:01:45;;;;;;;2.83;1.23;;;7.90;99.90;;;;;;5117216;28;20238;-79
2023/01/12 11:04:13;;;;;;;3.90;1.30;;;7.80;99.90;;;;;;5119854;28;20177;-79
2023/01/12 11:06:42;;;;;;;2.80;1.40;;;7.80;99.90;;;;;;5120512;28;20192;-79
2023/01/12 11:09:22;;;;;;;3.40;1.53;;;7.70;99.90;;;;;;5117841;28;20292;-79
2023/01/12 11:11:53;;;;;;;2.27;1.37;;;7.70;99.90;;;;;;5117054;28;20547;-78
2023/01/12 11:14:39;;;;;;;3.33;1.73;;;7.60;99.90;;;;;;5114988;28;20170;-78
2023/01/12 11:20:27;;;;;;;4.30;1.30;;;7.60;99.90;;;;;;5118704;28;20300;-81
2023/01/12 11:22:58;;;;;;;2.30;0.70;;;7.50;99.90;;;;;;5115985;28;20644;-78
2023/01/12 11:25:25;;;;;;;3.77;0.80;;;7.50;99.90;;;;;;5119940;28;20585;-78
2023/01/12 11:27:56;;;;;;;7.23;1.13;;;7.40;99.90;;;;;;5118453;28;20218;-79
2023/01/12 11:30:35;;;;;;;1.73;0.70;;;7.40;99.90;;;;;;5115324;28;20186;-77
2023/01/12 11:33:15;;;;;;;2.17;0.70;;;7.30;99.90;;;;;;5118307;28;20217;-78
2023/01/12 11:35:58;;;;;;;1.20;0.93;;;7.30;99.90;;;;;;5115291;27;20175;-77
2023/01/12 11:38:46;;;;;;;2.10;0.70;;;7.20;99.90;;;;;;5117036;28;20216;-80
2023/01/12 11:41:33;;;;;;;2.83;1.77;;;7.20;99.90;;;;;;5116815;28;20168;-78
2023/01/12 11:44:16;;;;;;;1.73;0.77;;;7.20;99.90;;;;;;5117430;28;20581;-78
2023/01/12 11:46:46;;;;;;;2.43;0.87;;;7.20;99.90;;;;;;5118471;28;20173;-78
2023/01/12 11:49:45;;;;;;;0.97;0.70;;;7.20;99.90;;;;;;5117103;28;20200;-79
2023/01/12 11:52:13;;;;;;;2.53;0.63;;;7.20;99.90;;;;;;5116273;28;20658;-78
2023/01/12 11:54:40;;;;;;;2.50;0.90;;;7.10;99.90;;;;;;5117208;28;20181;-78
2023/01/12 11:57:33;;;;;;;1.77;1.00;;;7.20;99.90;;;;;;5118552;28;20172;-78
2023/01/12 12:00:07;;;;;;;1.73;0.80;;;7.20;99.90;;;;;;5115799;28;20245;-78
2023/01/12 12:02:40;;;;;;;2.27;0.87;;;7.20;99.90;;;;;;5115239;28;20169;-79
2023/01/12 12:05:15;;;;;;;2.03;0.80;;;7.20;99.90;;;;;;5120137;28;20239;-80
2023/01/12 12:08:18;;;;;;;1.40;0.80;;;7.10;99.90;;;;;;5121170;28;20544;-78
2023/01/12 12:10:53;;;;;;;3.20;1.20;;;7.10;99.90;;;;;;5123524;28;20176;-78
2023/01/12 12:13:30;;;;;;;3.93;0.83;;;7.10;99.90;;;;;;5119358;28;20281;-78
2023/01/12 12:16:17;;;;;;;1.53;0.80;;;7.10;99.90;;;;;;5113328;28;20173;-78
2023/01/12 12:18:54;;;;;;;2.20;1.10;;;7.10;99.90;;;;;;5116207;28;20191;-78
2023/01/12 12:21:29;;;;;;;1.47;0.80;;;7.10;99.90;;;;;;5114271;28;20306;-77
2023/01/12 12:24:20;;;;;;;1.30;0.80;;;7.00;99.90;;;;;;5116126;28;20541;-79
2023/01/12 12:27:02;;;;;;;3.27;1.43;;;7.10;99.90;;;;;;5118136;28;20240;-79
2023/01/12 12:29:47;;;;;;;1.30;0.67;;;7.20;99.90;;;;;;5117285;28;20193;-77
2023/01/12 12:32:44;;;;;;;4.67;0.87;;;7.20;99.90;;;;;;5117409;28;20206;-78
2023/01/12 12:35:17;;;;;;;2.33;1.40;;;7.20;99.90;;;;;;5111086;28;20185;-78
2023/01/12 12:37:51;;;;;;;2.10;0.90;;;7.30;99.90;;;;;;5113558;28;20191;-78
2023/01/12 12:45:15;;;;;;;2.53;1.57;;;7.40;99.90;;;;;;5117424;28;20145;-78
2023/01/12 12:46:52;;;;;;;1.20;0.80;;;7.60;99.90;;;;;;5116169;28;20276;-78
2023/01/12 12:49:24;;;;;;;3.37;1.30;;;7.60;99.90;;;;;;5080249;28;20236;-78
2023/01/12 12:51:51;;;;;;;2.57;1.10;;;7.60;99.90;;;;;;5115539;28;20185;-78
2023/01/12 12:54:19;;;;;;;4.43;1.27;;;7.60;99.90;;;;;;5114167;28;20171;-78
2023/01/12 12:56:46;;;;;;;3.43;1.13;;;7.70;99.90;;;;;;5115679;28;20166;-80
2023/01/12 12:59:32;;;;;;;5.53;1.13;;;7.70;99.90;;;;;;5122274;28;20246;-78
2023/01/12 13:01:59;;;;;;;1.80;0.90;;;7.70;99.90;;;;;;5111727;28;20229;-79
2023/01/12 13:04:45;;;;;;;3.47;0.97;;;7.80;99.90;;;;;;5122181;28;20172;-79
2023/01/12 13:07:17;;;;;;;2.63;1.10;;;7.70;99.90;;;;;;5123329;28;20185;-77
2023/01/12 13:09:43;;;;;;;2.10;1.10;;;7.60;99.90;;;;;;5116779;28;20181;-79
2023/01/12 13:12:18;;;;;;;1.83;1.03;;;7.60;99.90;;;;;;5118716;28;20214;-79
2023/01/12 13:15:03;;;;;;;3.73;0.87;;;7.60;99.90;;;;;;5118679;28;20176;-79
2023/01/12 13:17:32;;;;;;;1.73;0.77;;;7.50;99.90;;;;;;5118840;28;20197;-78
2023/01/12 13:20:01;;;;;;;1.03;0.60;;;7.50;99.90;;;;;;5117535;28;20249;-77
2023/01/12 13:22:31;;;;;;;4.97;1.07;;;7.50;99.90;;;;;;5117670;28;20617;-78
2023/01/12 13:25:00;;;;;;;1.40;0.80;;;7.50;99.90;;;;;;5118886;28;20162;-77
2023/01/12 13:27:49;;;;;;;3.03;1.10;;;7.50;99.90;;;;;;5116671;28;20611;-78
2023/01/12 13:30:30;;;;;;;1.80;0.70;;;7.40;99.90;;;;;;5116412;28;20710;-78
2023/01/12 13:33:14;;;;;;;1.93;0.67;;;7.50;99.90;;;;;;5119530;28;20243;-78
2023/01/12 13:35:42;;;;;;;8.13;3.00;;;7.40;99.90;;;;;;5120885;28;20197;-78
2023/01/12 13:38:19;;;;;;;8.93;3.97;;;7.40;99.90;;;;;;5119015;28;20634;-79
2023/01/12 13:40:45;;;;;;;4.43;1.60;;;7.40;99.90;;;;;;5124569;28;20158;-78
2023/01/12 13:43:40;;;;;;;2.73;1.10;;;7.50;99.90;;;;;;5120892;28;20268;-78
2023/01/12 13:46:26;;;;;;;4.13;0.90;;;7.50;99.90;;;;;;5120488;28;20179;-79
2023/01/12 13:48:54;;;;;;;3.27;1.63;;;7.40;99.90;;;;;;5122178;28;20214;-79
2023/01/12 13:51:31;;;;;;;3.03;1.30;;;7.40;99.90;;;;;;5122463;28;20183;-80
2023/01/12 13:54:05;;;;;;;1.93;1.23;;;7.30;99.90;;;;;;5124136;28;20181;-80
2023/01/12 13:56:31;;;;;;;3.10;1.40;;;7.30;99.90;;;;;;5134129;28;20167;-80
2023/01/12 13:59:00;;;;;;;3.70;1.73;;;7.30;99.90;;;;;;5132190;28;20201;-80
2023/01/12 14:01:28;;;;;;;3.17;1.63;;;7.30;99.90;;;;;;5121497;28;20267;-78
2023/01/12 14:04:20;;;;;;;3.40;1.37;;;7.20;99.90;;;;;;5121713;28;20179;-78
2023/01/12 14:07:10;;;;;;;3.10;1.20;;;7.20;99.90;;;;;;5105062;28;20676;-79
2023/01/12 14:09:50;;;;;;;3.87;2.43;;;7.20;99.90;;;;;;5120436;28;20170;-79
2023/01/12 14:12:50;;;;;;;5.00;2.17;;;7.10;99.90;;;;;;5118548;28;20236;-78
2023/01/12 14:18:16;;;;;;;2.97;1.10;;;7.20;99.90;;;;;;5122168;28;20560;-80
2023/01/12 14:20:58;;;;;;;3.13;1.10;;;7.10;99.90;;;;;;5120669;28;20176;-78
2023/01/12 14:23:28;;;;;;;3.40;1.00;;;7.20;99.90;;;;;;5121275;28;20174;-80
2023/01/12 14:26:08;;;;;;;2.50;1.33;;;7.10;99.90;;;;;;5120754;28;20289;-80
2023/01/12 14:28:36;;;;;;;3.80;1.10;;;7.20;99.90;;;;;;5120966;28;20206;-79
2023/01/12 14:31:04;;;;;;;2.93;1.13;;;7.30;99.90;;;;;;5123070;28;20175;-80
2023/01/12 14:33:36;;;;;;;4.00;1.30;;;7.20;99.90;;;;;;5122914;28;20211;-79
2023/01/12 14:36:24;;;;;;;1.20;0.80;;;7.30;99.90;;;;;;5118800;28;20205;-78
2023/01/12 14:38:51;;;;;;;1.13;0.77;;;7.30;99.90;;;;;;5121871;28;20198;-78
2023/01/12 14:46:52;;;;;;;4.00;1.00;;;7.30;99.90;;;;;;5121511;28;20547;-78
2023/01/12 14:49:36;;;;;;;2.63;1.10;;;7.30;99.90;;;;;;5120876;28;20183;-78
